Главная страница
METAR-TAF:

METAR-TAF

Аэропорты :

Каир, Египет

широта: 30-08N, долгота: 031-24E, высота над уровнем моря: 64 м

Текущие метеонаблюдения

Эта сводка был подготовлена 26 минут назад, в 01:00 UTC
Ветер 5 Узел от северный
Температура 25°C
Влажность 74%
Давление 1011 hPa
Видимость 10 км и более
Нет облачности ниже 1500 м, и нет кучево-дождевой облачности

METAR: HECA 240100Z 01005KT CAVOK 25/20 Q1011 NOSIG

Время: 03:26 (01:26 UTC)

Прогноз

Эта сводка был подготовлена 2 часа и 26 минут назад, в 23:00 UTC
Прогноз действительный с 24-го 00 UTC до 25-го 06 UTC
Ветер 8 Узел от северный
Видимость 10 км и более
Нет облачности ниже 1500 м, и нет кучево-дождевой облачности
временами
С 24-го 02 UTC до 24-го 07 UTC
Ветер 3 Узел переменных направлений
временами
С 24-го 15 UTC до 24-го 20 UTC
Ветер 10 Узел от северно-северо-западный с порывами до 20 Узел

TAF: HECA 232300Z 2400/2506 35008KT CAVOK TEMPO 2402/2407 VRB03KT TEMPO 2415/2420 33010G20KT

Метеонаблюдения и прогнозы для более 4000 аэропортов (сводки METAR и TAF).

Имеющиеся станции представлены на карте желтыми и красными точками.

Чтобы увидеть название станции, наведите на нее мышь.

Затем щелкните, чтобы увидеть метеонаблюдения и метеопрогнозы.

Управление картой: чтобы увеличить масштаб, щелкните зеленые кнопки с черным крестиком; чтобы уменьшить масштаб, щелкните зеленую кнопку с тире; для просмотра соседних карт щелкайте зеленые стрелки.


METAR-TAF: